createdAt,value
2017-09-29T00:00:29.568Z,12.50
2017-09-29T00:03:05.002Z,12.40
2017-09-29T00:05:32.510Z,12.40
2017-09-29T00:08:00.060Z,12.40
2017-09-29T00:10:27.576Z,12.40
2017-09-29T00:12:55.390Z,12.30
2017-09-29T00:15:23.270Z,12.30
2017-09-29T00:17:51.072Z,12.30
2017-09-29T00:20:18.602Z,12.20
2017-09-29T00:22:46.184Z,12.20
2017-09-29T00:25:13.698Z,12.20
2017-09-29T00:27:41.207Z,12.30
2017-09-29T00:30:10.456Z,12.30
2017-09-29T00:32:38.227Z,12.20
2017-09-29T00:35:05.744Z,12.20
2017-09-29T00:37:33.311Z,12.20
2017-09-29T00:40:00.921Z,12.30
2017-09-29T00:42:29.355Z,12.30
2017-09-29T00:44:57.727Z,12.30
2017-09-29T00:47:25.239Z,12.30
2017-09-29T00:49:59.987Z,12.40
2017-09-29T00:52:27.516Z,12.40
2017-09-29T00:54:55.032Z,12.40
2017-09-29T00:57:22.650Z,12.50
2017-09-29T00:59:50.163Z,12.50
2017-09-29T01:02:17.673Z,12.60
2017-09-29T01:04:49.803Z,12.60
2017-09-29T01:07:18.493Z,12.50
2017-09-29T01:09:46.228Z,12.50
2017-09-29T01:12:15.222Z,12.60
2017-09-29T01:14:43.004Z,12.60
2017-09-29T01:17:10.767Z,12.70
2017-09-29T01:19:38.928Z,12.70
2017-09-29T01:22:06.443Z,12.80
2017-09-29T01:24:33.971Z,12.80
2017-09-29T01:27:01.523Z,12.80
2017-09-29T01:29:29.063Z,12.80
2017-09-29T01:31:56.581Z,12.70
2017-09-29T01:34:27.039Z,12.70
2017-09-29T01:36:55.324Z,12.70
2017-09-29T01:39:22.909Z,12.70
2017-09-29T01:41:50.431Z,12.80
2017-09-29T01:44:18.616Z,12.80
2017-09-29T01:46:46.371Z,12.90
2017-09-29T01:49:17.241Z,12.90
2017-09-29T01:51:44.804Z,12.90
2017-09-29T01:54:12.303Z,13.00
2017-09-29T01:56:40.174Z,13.10
2017-09-29T01:59:07.735Z,13.10
2017-09-29T02:01:35.253Z,13.10
2017-09-29T02:04:02.755Z,13.20
2017-09-29T02:06:31.284Z,13.20
2017-09-29T02:08:58.806Z,13.20
2017-09-29T02:11:27.222Z,13.10
2017-09-29T02:13:55.131Z,13.00
2017-09-29T02:16:22.717Z,12.90
2017-09-29T02:18:50.443Z,12.90
2017-09-29T02:21:17.975Z,12.80
2017-09-29T02:23:45.528Z,12.60
2017-09-29T02:26:13.368Z,12.60
2017-09-29T02:28:41.677Z,12.40
2017-09-29T02:31:09.385Z,12.40
2017-09-29T02:33:37.250Z,12.40
2017-09-29T02:36:04.810Z,12.30
2017-09-29T02:38:32.783Z,12.30
2017-09-29T02:41:00.303Z,12.30
2017-09-29T02:43:28.348Z,12.40
2017-09-29T02:45:55.877Z,12.40
2017-09-29T02:48:24.215Z,12.40
2017-09-29T02:50:51.742Z,12.40
2017-09-29T02:53:19.275Z,12.40
2017-09-29T02:55:47.795Z,12.40
2017-09-29T02:58:17.346Z,12.40
2017-09-29T03:00:53.671Z,12.40
2017-09-29T03:03:23.683Z,12.40
2017-09-29T03:05:57.179Z,12.30
2017-09-29T03:08:25.197Z,12.30
2017-09-29T03:10:52.768Z,12.30
2017-09-29T03:13:20.615Z,12.40
2017-09-29T03:15:48.132Z,12.40
2017-09-29T03:18:15.667Z,12.40
2017-09-29T03:20:44.868Z,12.50
2017-09-29T03:23:13.170Z,12.50
2017-09-29T03:25:41.228Z,12.50
2017-09-29T03:28:10.002Z,12.60
2017-09-29T03:30:39.200Z,12.60
2017-09-29T03:33:06.739Z,12.60
2017-09-29T03:35:34.447Z,12.60
2017-09-29T03:38:02.212Z,12.60
2017-09-29T03:40:29.938Z,12.50
2017-09-29T03:42:57.791Z,12.50
2017-09-29T03:45:25.588Z,12.50
2017-09-29T03:47:53.139Z,12.50
2017-09-29T03:50:22.791Z,12.50
2017-09-29T03:52:52.530Z,12.50
2017-09-29T03:55:22.372Z,12.50
2017-09-29T03:57:52.442Z,12.40
2017-09-29T04:00:20.324Z,12.40
2017-09-29T04:02:48.507Z,12.40
2017-09-29T04:05:16.016Z,12.40
2017-09-29T04:07:43.570Z,12.40
2017-09-29T04:10:11.081Z,12.40
2017-09-29T04:12:38.605Z,12.40
2017-09-29T04:15:06.148Z,12.40
2017-09-29T04:17:33.657Z,12.30
2017-09-29T04:20:01.851Z,12.30
2017-09-29T04:22:29.365Z,12.30
2017-09-29T04:24:56.958Z,12.40
2017-09-29T04:27:24.640Z,12.40
2017-09-29T04:29:52.966Z,12.30
2017-09-29T04:32:22.043Z,12.40
2017-09-29T04:34:49.623Z,12.30
2017-09-29T04:37:17.695Z,12.30
2017-09-29T04:39:48.609Z,12.30
2017-09-29T04:42:16.999Z,12.30
2017-09-29T04:44:44.707Z,12.30
2017-09-29T04:47:12.218Z,12.30
2017-09-29T04:49:40.660Z,12.30
2017-09-29T04:52:12.031Z,12.20
2017-09-29T04:54:39.544Z,12.20
2017-09-29T04:57:07.155Z,12.10
2017-09-29T04:59:36.368Z,12.20
2017-09-29T05:02:03.910Z,12.10
2017-09-29T05:04:31.416Z,12.20
2017-09-29T05:06:59.006Z,12.20
2017-09-29T05:09:27.326Z,12.40
2017-09-29T05:14:29.075Z,12.50
2017-09-29T05:16:56.787Z,12.50
2017-09-29T05:19:24.490Z,12.50
2017-09-29T05:21:52.011Z,12.60
2017-09-29T05:24:20.928Z,12.60
2017-09-29T05:26:48.802Z,12.60
2017-09-29T05:29:16.311Z,12.60
2017-09-29T05:31:48.274Z,12.70
2017-09-29T05:34:15.908Z,12.80
2017-09-29T05:36:43.431Z,12.80
2017-09-29T05:39:10.959Z,12.90
2017-09-29T05:41:38.554Z,12.90
2017-09-29T05:44:06.395Z,13.00
2017-09-29T05:46:33.947Z,13.10
2017-09-29T05:49:01.667Z,13.10
2017-09-29T05:51:29.441Z,13.10
2017-09-29T05:53:56.964Z,13.10
2017-09-29T05:56:25.247Z,13.20
2017-09-29T05:58:54.274Z,13.30
2017-09-29T06:01:21.792Z,13.30
2017-09-29T06:03:50.112Z,13.50
2017-09-29T06:06:17.938Z,13.50
2017-09-29T06:08:46.238Z,13.60
2017-09-29T06:11:13.766Z,13.60
2017-09-29T06:13:43.002Z,13.70
2017-09-29T06:16:10.547Z,13.70
2017-09-29T06:18:38.630Z,13.80
2017-09-29T06:21:06.623Z,13.90
2017-09-29T06:23:34.952Z,14.00
2017-09-29T06:26:05.809Z,14.00
2017-09-29T06:28:33.376Z,14.00
2017-09-29T06:31:02.628Z,14.10
2017-09-29T06:33:31.816Z,14.20
2017-09-29T06:35:59.367Z,14.20
2017-09-29T06:38:27.475Z,14.30
2017-09-29T06:40:55.756Z,14.60
2017-09-29T06:43:23.273Z,14.60
2017-09-29T06:45:50.832Z,14.80
2017-09-29T06:48:19.120Z,15.10
2017-09-29T06:50:46.649Z,15.10
2017-09-29T06:53:14.989Z,15.40
2017-09-29T06:55:42.552Z,15.40
2017-09-29T06:58:10.419Z,15.60
2017-09-29T07:00:37.945Z,15.80
2017-09-29T07:03:07.192Z,15.90
2017-09-29T07:05:35.631Z,15.90
2017-09-29T07:08:03.968Z,16.20
2017-09-29T07:10:35.214Z,16.20
2017-09-29T07:13:02.844Z,16.30
2017-09-29T07:15:31.648Z,16.40
2017-09-29T07:17:59.593Z,16.40
2017-09-29T07:20:27.107Z,16.40
2017-09-29T07:22:54.616Z,16.40
2017-09-29T07:25:28.155Z,16.40
2017-09-29T07:27:57.844Z,16.40
2017-09-29T07:30:29.339Z,16.40
2017-09-29T07:32:56.875Z,16.40
2017-09-29T07:35:24.676Z,16.40
2017-09-29T07:37:52.232Z,16.40
2017-09-29T07:40:21.446Z,16.40
2017-09-29T07:42:49.004Z,16.50
2017-09-29T07:45:17.274Z,16.50
2017-09-29T07:47:44.825Z,16.50
2017-09-29T07:50:13.147Z,16.50
2017-09-29T07:52:40.682Z,16.50
2017-09-29T07:55:08.468Z,16.60
2017-09-29T07:57:36.075Z,16.60
2017-09-29T08:00:03.592Z,16.60
2017-09-29T08:02:31.144Z,16.60
2017-09-29T08:05:00.399Z,16.70
2017-09-29T08:07:28.739Z,16.70
2017-09-29T08:09:56.251Z,16.70
2017-09-29T08:12:25.425Z,16.70
2017-09-29T08:14:52.972Z,16.80
2017-09-29T08:17:20.733Z,16.70
2017-09-29T08:19:49.364Z,16.70
2017-09-29T08:22:16.887Z,16.70
2017-09-29T08:24:44.455Z,16.70
2017-09-29T08:27:11.971Z,16.80
2017-09-29T08:29:39.810Z,16.90
2017-09-29T08:32:07.579Z,17.00
2017-09-29T08:34:35.096Z,17.10
2017-09-29T08:37:02.627Z,17.20
2017-09-29T08:39:30.970Z,17.50
2017-09-29T08:41:58.643Z,17.50
2017-09-29T08:44:26.406Z,17.70
2017-09-29T08:46:54.125Z,17.80
2017-09-29T08:49:21.818Z,18.00
2017-09-29T08:51:50.303Z,18.20
2017-09-29T08:54:17.855Z,18.40
2017-09-29T08:56:47.068Z,18.80
2017-09-29T08:59:14.571Z,18.80
2017-09-29T09:01:42.193Z,19.00
2017-09-29T09:04:09.767Z,19.10
2017-09-29T09:06:37.283Z,19.30
2017-09-29T09:09:06.967Z,19.60
2017-09-29T09:11:34.492Z,19.60
2017-09-29T09:14:05.412Z,19.70
2017-09-29T09:16:32.925Z,19.90
2017-09-29T09:19:00.886Z,19.80
2017-09-29T09:21:28.510Z,19.80
2017-09-29T09:23:56.167Z,19.80
2017-09-29T09:26:23.810Z,19.80
2017-09-29T09:28:51.330Z,19.90
2017-09-29T09:31:19.788Z,20.10
2017-09-29T09:33:47.343Z,20.10
2017-09-29T09:36:14.856Z,20.20
2017-09-29T09:38:42.414Z,20.30
2017-09-29T09:41:09.928Z,20.40
2017-09-29T09:43:40.426Z,20.40
2017-09-29T09:46:07.935Z,20.40
2017-09-29T09:48:35.496Z,20.50
2017-09-29T09:51:03.713Z,20.60
2017-09-29T09:53:31.263Z,20.70
2017-09-29T09:55:59.543Z,20.80
2017-09-29T09:58:27.066Z,20.80
2017-09-29T10:00:54.612Z,20.80
2017-09-29T10:03:23.144Z,20.70
2017-09-29T10:05:50.718Z,20.70
2017-09-29T10:08:18.404Z,20.70
2017-09-29T10:10:46.140Z,20.70
2017-09-29T10:13:13.774Z,20.60
2017-09-29T10:15:45.195Z,20.60
2017-09-29T10:18:12.703Z,20.60
2017-09-29T10:20:40.580Z,20.60
2017-09-29T10:23:08.459Z,20.60
2017-09-29T10:25:42.714Z,20.60
2017-09-29T10:28:10.593Z,20.70
2017-09-29T10:30:39.878Z,20.80
2017-09-29T10:33:08.358Z,20.70
2017-09-29T10:35:35.860Z,20.70
2017-09-29T10:38:03.480Z,20.60
2017-09-29T10:40:31.039Z,20.50
2017-09-29T10:42:58.743Z,20.40
2017-09-29T10:45:26.634Z,20.40
2017-09-29T10:47:54.564Z,20.40
2017-09-29T10:50:22.408Z,20.50
2017-09-29T10:52:49.912Z,20.50
2017-09-29T10:55:18.235Z,20.40
2017-09-29T10:57:46.651Z,20.30
2017-09-29T11:00:14.343Z,20.20
2017-09-29T11:02:41.859Z,20.20
2017-09-29T11:05:11.377Z,20.20
2017-09-29T11:07:38.957Z,20.20
2017-09-29T11:10:06.518Z,20.20
2017-09-29T11:12:34.035Z,20.30
2017-09-29T11:15:01.567Z,20.50
2017-09-29T11:17:29.719Z,20.60
2017-09-29T11:19:57.257Z,20.70
2017-09-29T11:22:24.839Z,20.80
2017-09-29T11:24:52.427Z,20.80
2017-09-29T11:27:19.940Z,21.00
2017-09-29T11:29:47.912Z,20.90
2017-09-29T11:32:18.344Z,21.00
2017-09-29T11:34:46.100Z,20.90
2017-09-29T11:37:13.821Z,20.90
2017-09-29T11:39:41.351Z,20.80
2017-09-29T11:42:08.934Z,20.80
2017-09-29T11:44:36.599Z,20.70
2017-09-29T11:47:04.160Z,20.70
2017-09-29T11:49:32.505Z,20.50
2017-09-29T11:52:00.456Z,20.40
2017-09-29T11:54:27.986Z,20.30
2017-09-29T11:56:57.275Z,20.20
2017-09-29T11:59:25.695Z,20.10
2017-09-29T12:01:53.643Z,20.10
2017-09-29T12:04:21.759Z,20.10
2017-09-29T12:06:49.267Z,20.10
2017-09-29T12:09:17.580Z,20.10
2017-09-29T12:11:46.011Z,20.10
2017-09-29T12:14:14.322Z,20.20
2017-09-29T12:16:41.862Z,20.20
2017-09-29T12:19:09.441Z,20.20
2017-09-29T12:21:36.993Z,20.20
2017-09-29T12:24:04.684Z,20.20
2017-09-29T12:26:32.228Z,20.20
2017-09-29T12:29:00.729Z,20.30
2017-09-29T12:31:28.253Z,20.30
2017-09-29T12:33:55.803Z,20.30
2017-09-29T12:36:23.362Z,20.40
2017-09-29T12:38:51.128Z,20.40
2017-09-29T12:41:21.271Z,20.50
2017-09-29T12:43:50.253Z,20.60
2017-09-29T12:46:21.088Z,20.60
2017-09-29T12:48:48.616Z,20.80
2017-09-29T12:51:17.368Z,21.00
2017-09-29T12:53:44.963Z,21.00
2017-09-29T12:56:12.486Z,21.20
2017-09-29T12:58:40.003Z,21.30
2017-09-29T13:01:07.725Z,21.30
2017-09-29T13:03:35.234Z,21.20
2017-09-29T13:06:03.299Z,21.10
2017-09-29T13:08:30.820Z,21.10
2017-09-29T13:10:58.339Z,21.00
2017-09-29T13:13:25.890Z,21.00
2017-09-29T13:15:53.448Z,20.90
2017-09-29T13:18:21.036Z,20.90
2017-09-29T13:20:48.555Z,21.10
2017-09-29T13:23:16.122Z,21.20
2017-09-29T13:25:43.639Z,21.30
2017-09-29T13:28:11.763Z,21.50
2017-09-29T13:30:39.383Z,21.60
2017-09-29T13:33:07.660Z,21.50
2017-09-29T13:35:35.471Z,21.50
2017-09-29T13:38:03.015Z,21.50
2017-09-29T13:40:30.525Z,21.50
2017-09-29T13:42:58.418Z,21.50
2017-09-29T13:45:25.928Z,21.50
2017-09-29T13:47:53.457Z,21.50
2017-09-29T13:50:21.012Z,21.50
2017-09-29T13:52:48.525Z,21.50
2017-09-29T13:55:16.226Z,21.50
2017-09-29T13:57:44.548Z,21.50
2017-09-29T14:00:12.106Z,21.60
2017-09-29T14:02:40.965Z,20.90
2017-09-29T14:05:08.947Z,20.90
2017-09-29T14:07:36.478Z,20.80
2017-09-29T14:10:04.024Z,20.80
2017-09-29T14:12:31.559Z,20.90
2017-09-29T14:14:59.115Z,21.00
2017-09-29T14:17:26.621Z,21.20
2017-09-29T14:19:54.616Z,21.20
2017-09-29T14:22:22.416Z,21.20
2017-09-29T14:24:50.139Z,21.00
2017-09-29T14:27:17.698Z,21.00
2017-09-29T14:29:45.597Z,20.60
2017-09-29T14:32:20.096Z,20.20
2017-09-29T14:34:48.273Z,20.10
2017-09-29T14:37:15.831Z,20.10
2017-09-29T14:39:43.734Z,20.30
2017-09-29T14:42:11.238Z,20.30
2017-09-29T14:44:39.282Z,20.40
2017-09-29T14:47:11.369Z,20.40
2017-09-29T14:49:39.179Z,20.30
2017-09-29T14:52:07.534Z,20.40
2017-09-29T14:54:35.172Z,20.40
2017-09-29T14:57:02.727Z,20.40
2017-09-29T14:59:30.244Z,20.40
2017-09-29T15:01:58.033Z,20.40
2017-09-29T15:04:27.279Z,20.30
2017-09-29T15:06:54.968Z,20.30
2017-09-29T15:09:22.487Z,20.30
2017-09-29T15:11:50.027Z,20.20
2017-09-29T15:14:17.530Z,20.20
2017-09-29T15:16:46.015Z,20.20
2017-09-29T15:19:13.532Z,20.20
2017-09-29T15:21:41.065Z,20.10
2017-09-29T15:24:09.696Z,20.00
2017-09-29T15:26:37.854Z,20.00
2017-09-29T15:29:05.414Z,20.00
2017-09-29T15:31:32.969Z,19.90
2017-09-29T15:34:00.475Z,19.90
2017-09-29T15:36:28.060Z,19.80
2017-09-29T15:38:55.647Z,19.70
2017-09-29T15:41:23.735Z,19.60
2017-09-29T15:43:51.324Z,19.50
2017-09-29T15:46:18.841Z,19.40
2017-09-29T15:48:46.371Z,19.30
2017-09-29T15:51:14.159Z,19.30
2017-09-29T15:53:41.667Z,19.20
2017-09-29T15:56:09.235Z,19.10
2017-09-29T15:58:37.145Z,19.10
2017-09-29T16:01:04.678Z,19.10
2017-09-29T16:03:36.052Z,19.10
2017-09-29T16:06:03.566Z,19.00
2017-09-29T16:08:31.123Z,19.00
2017-09-29T16:10:58.634Z,18.90
2017-09-29T16:13:27.844Z,18.80
2017-09-29T16:15:55.408Z,18.80
2017-09-29T16:18:23.822Z,18.70
2017-09-29T16:20:51.887Z,18.70
2017-09-29T16:23:19.395Z,18.70
2017-09-29T16:25:46.980Z,18.60
2017-09-29T16:28:14.546Z,18.50
2017-09-29T16:30:42.378Z,18.40
2017-09-29T16:33:09.938Z,18.40
2017-09-29T16:35:37.453Z,18.30
2017-09-29T16:38:06.589Z,18.10
2017-09-29T16:40:34.148Z,18.10
2017-09-29T16:43:01.663Z,18.00
2017-09-29T16:45:30.255Z,17.90
2017-09-29T16:47:57.908Z,17.80
2017-09-29T16:50:25.431Z,17.70
2017-09-29T16:52:53.036Z,17.70
2017-09-29T16:55:21.522Z,17.60
2017-09-29T16:57:49.906Z,17.50
2017-09-29T17:00:17.457Z,17.50
2017-09-29T17:02:46.123Z,17.40
2017-09-29T17:05:17.220Z,17.40
2017-09-29T17:07:44.746Z,17.40
2017-09-29T17:10:13.925Z,17.30
2017-09-29T17:12:41.448Z,17.30
2017-09-29T17:15:09.887Z,17.20
2017-09-29T17:17:39.167Z,17.10
2017-09-29T17:20:06.731Z,17.10
2017-09-29T17:22:34.300Z,17.10
2017-09-29T17:25:01.864Z,17.00
2017-09-29T17:27:29.538Z,16.90
2017-09-29T17:29:57.064Z,16.80
2017-09-29T17:32:24.620Z,16.70
2017-09-29T17:34:57.482Z,16.60
2017-09-29T17:37:25.752Z,16.60
2017-09-29T17:39:53.682Z,16.60
2017-09-29T17:42:21.959Z,16.40
2017-09-29T17:44:49.476Z,16.40
2017-09-29T17:47:17.080Z,16.30
2017-09-29T17:49:44.623Z,16.30
2017-09-29T17:52:12.695Z,16.20
2017-09-29T17:54:40.299Z,16.10
2017-09-29T17:57:07.821Z,16.10
2017-09-29T17:59:35.479Z,16.10
2017-09-29T18:02:03.027Z,16.00
2017-09-29T18:04:30.576Z,16.00
2017-09-29T18:07:02.155Z,16.00
2017-09-29T18:09:30.856Z,16.00
2017-09-29T18:11:59.262Z,16.00
2017-09-29T18:14:27.951Z,16.10
2017-09-29T18:16:55.527Z,16.00
2017-09-29T18:19:23.029Z,16.10
2017-09-29T18:21:52.248Z,16.10
2017-09-29T18:24:19.787Z,16.10
2017-09-29T18:26:47.345Z,16.10
2017-09-29T18:29:16.536Z,16.10
2017-09-29T18:31:44.044Z,16.10
2017-09-29T18:34:11.595Z,16.10
2017-09-29T18:36:39.127Z,16.20
2017-09-29T18:39:07.573Z,16.30
2017-09-29T18:41:56.191Z,16.30
2017-09-29T18:47:28.466Z,16.30
2017-09-29T18:49:56.924Z,16.30
2017-09-29T18:52:25.432Z,16.30
2017-09-29T18:54:53.008Z,16.30
2017-09-29T18:57:20.544Z,16.30
2017-09-29T18:59:48.451Z,16.30
2017-09-29T19:02:15.995Z,16.30
2017-09-29T19:04:44.836Z,16.30
2017-09-29T19:07:12.622Z,16.20
2017-09-29T19:09:40.203Z,16.30
2017-09-29T19:12:09.355Z,16.20
2017-09-29T19:14:37.151Z,16.20
2017-09-29T19:17:04.710Z,16.20
2017-09-29T19:19:33.123Z,16.20
2017-09-29T19:22:04.180Z,16.20
2017-09-29T19:24:31.700Z,16.10
2017-09-29T19:26:59.204Z,16.10
2017-09-29T19:29:26.798Z,16.10
2017-09-29T19:31:54.346Z,16.00
2017-09-29T19:34:23.556Z,15.90
2017-09-29T19:36:58.776Z,15.90
2017-09-29T19:39:27.062Z,15.80
2017-09-29T19:41:54.623Z,15.80
2017-09-29T19:44:22.907Z,15.70
2017-09-29T19:46:50.423Z,15.70
2017-09-29T19:49:18.572Z,15.60
2017-09-29T19:51:46.071Z,15.50
2017-09-29T19:54:13.991Z,15.40
2017-09-29T19:56:41.500Z,15.30
2017-09-29T19:59:09.773Z,15.30
2017-09-29T20:01:37.878Z,15.30
2017-09-29T20:04:05.456Z,15.20
2017-09-29T20:06:32.966Z,15.20
2017-09-29T20:09:00.861Z,15.10
2017-09-29T20:11:28.389Z,15.00
2017-09-29T20:13:57.662Z,14.80
2017-09-29T20:16:25.225Z,14.80
2017-09-29T20:18:52.765Z,14.80
2017-09-29T20:21:20.315Z,14.70
2017-09-29T20:23:47.835Z,14.70
2017-09-29T20:26:19.807Z,14.70
2017-09-29T20:28:47.408Z,14.70
2017-09-29T20:31:15.143Z,14.70
2017-09-29T20:33:43.337Z,14.70
2017-09-29T20:36:11.227Z,14.60
2017-09-29T20:38:38.738Z,14.50
2017-09-29T20:41:06.296Z,14.50
2017-09-29T20:43:34.745Z,14.40
2017-09-29T20:46:02.258Z,14.40
2017-09-29T20:48:30.284Z,14.40
2017-09-29T20:50:57.799Z,14.30
2017-09-29T20:53:28.808Z,14.30
2017-09-29T20:55:56.332Z,14.30
2017-09-29T20:58:23.848Z,14.20
2017-09-29T21:00:51.436Z,14.20
2017-09-29T21:03:20.914Z,14.10
2017-09-29T21:05:48.934Z,14.10
2017-09-29T21:08:17.444Z,14.10
2017-09-29T21:10:45.114Z,14.00
2017-09-29T21:13:13.147Z,14.00
2017-09-29T21:15:40.717Z,13.90
2017-09-29T21:18:08.679Z,13.90
2017-09-29T21:20:36.202Z,13.90
2017-09-29T21:23:03.750Z,13.90
2017-09-29T21:25:31.283Z,13.80
2017-09-29T21:27:58.851Z,13.90
2017-09-29T21:30:26.368Z,13.80
2017-09-29T21:32:54.649Z,13.70
2017-09-29T21:35:22.540Z,13.70
2017-09-29T21:37:50.079Z,13.70
2017-09-29T21:40:17.903Z,13.60
2017-09-29T21:42:45.499Z,13.50
2017-09-29T21:45:13.779Z,13.50
2017-09-29T21:47:41.791Z,13.40
2017-09-29T21:50:09.304Z,13.40
2017-09-29T21:52:36.832Z,13.40
2017-09-29T21:55:08.580Z,13.30
2017-09-29T21:57:36.724Z,13.30
2017-09-29T22:00:04.355Z,13.30
2017-09-29T22:02:31.883Z,13.20
2017-09-29T22:04:59.444Z,13.20
2017-09-29T22:07:27.003Z,13.20
2017-09-29T22:09:54.510Z,13.10
2017-09-29T22:12:22.043Z,13.10
2017-09-29T22:14:50.518Z,13.10
2017-09-29T22:17:18.027Z,13.10
2017-09-29T22:19:45.562Z,13.10
2017-09-29T22:22:13.332Z,13.10
2017-09-29T22:24:44.480Z,13.00
2017-09-29T22:27:12.005Z,13.10
2017-09-29T22:29:41.127Z,13.20
2017-09-29T22:32:08.934Z,13.20
2017-09-29T22:34:36.800Z,13.20
2017-09-29T22:37:04.322Z,13.10
2017-09-29T22:39:31.848Z,13.10
2017-09-29T22:42:04.221Z,13.10
2017-09-29T22:44:31.736Z,13.10
2017-09-29T22:46:59.295Z,13.10
2017-09-29T22:49:27.041Z,13.10
2017-09-29T22:51:54.804Z,13.00
2017-09-29T22:54:22.674Z,13.00
2017-09-29T22:56:53.712Z,12.90
2017-09-29T22:59:21.222Z,13.00
2017-09-29T23:01:49.318Z,13.00
2017-09-29T23:04:16.875Z,13.00
2017-09-29T23:06:44.712Z,13.00
2017-09-29T23:09:12.248Z,13.10
2017-09-29T23:11:51.036Z,13.10
2017-09-29T23:14:18.549Z,13.10
2017-09-29T23:16:46.116Z,13.20
2017-09-29T23:19:15.442Z,13.20
2017-09-29T23:21:43.417Z,13.10
2017-09-29T23:24:11.056Z,13.20
2017-09-29T23:26:39.215Z,13.20
2017-09-29T23:29:06.931Z,13.20
2017-09-29T23:31:34.463Z,13.20
2017-09-29T23:34:02.739Z,13.20
2017-09-29T23:36:30.307Z,13.20
2017-09-29T23:38:58.625Z,13.20
2017-09-29T23:41:29.644Z,13.20
2017-09-29T23:43:57.163Z,13.10
2017-09-29T23:46:24.723Z,13.10
2017-09-29T23:48:53.968Z,13.20
2017-09-29T23:51:21.476Z,13.20
2017-09-29T23:53:49.974Z,13.30
2017-09-29T23:56:18.773Z,13.30
2017-09-29T23:58:46.308Z,13.30
